Time;durP1;ratioP1;P1;durP2;ratioP2;P2;SDS_P1;SDS_P2;PMS_P1;PMS_P2;Temp;Humidity;BMP_temperature;BMP_pressure;BME280_temperature;BME280_humidity;BME280_pressure;Samples;Min_cycle;Max_cycle;Signal;HPM_P1;HPM_P2
2023/12/14 00:00:31;;;;;;;50.87;25.87;;;6.10;99.90;;;;;;8270233;28;20191;-69
2023/12/14 00:04:31;;;;;;;44.97;25.13;;;6.10;99.90;;;;;;8267923;28;20270;-68
2023/12/14 00:08:32;;;;;;;56.97;30.07;;;6.10;99.90;;;;;;8272196;28;20395;-68
2023/12/14 00:12:33;;;;;;;57.87;32.10;;;6.10;99.90;;;;;;8269929;28;20218;-68
2023/12/14 00:16:34;;;;;;;52.30;29.97;;;6.10;99.90;;;;;;8271939;28;20194;-68
2023/12/14 00:20:34;;;;;;;47.97;26.60;;;6.10;99.90;;;;;;8267631;28;20179;-68
2023/12/14 00:24:35;;;;;;;53.40;31.33;;;6.10;99.90;;;;;;8272618;28;20202;-68
2023/12/14 00:28:36;;;;;;;55.93;33.20;;;6.10;99.90;;;;;;8270662;28;20191;-68
2023/12/14 00:32:36;;;;;;;56.43;34.27;;;6.10;99.90;;;;;;8263076;28;20209;-68
2023/12/14 00:36:37;;;;;;;64.13;34.03;;;6.20;99.90;;;;;;8262304;28;20320;-68
2023/12/14 00:40:38;;;;;;;62.13;34.60;;;6.20;99.90;;;;;;8262525;28;20210;-70
2023/12/14 00:44:39;;;;;;;59.47;36.63;;;6.20;99.90;;;;;;8258829;28;20199;-68
2023/12/14 00:48:40;;;;;;;57.50;32.93;;;6.20;99.90;;;;;;8271738;28;20206;-68
2023/12/14 00:52:40;;;;;;;55.93;32.63;;;6.20;99.90;;;;;;8275584;28;20249;-68
2023/12/14 00:56:41;;;;;;;51.00;31.07;;;6.20;99.90;;;;;;8278777;28;20187;-69
2023/12/14 01:00:42;;;;;;;73.00;34.13;;;6.20;99.90;;;;;;8273262;28;20595;-69
2023/12/14 01:04:43;;;;;;;55.17;28.83;;;6.10;99.90;;;;;;8275400;28;20423;-69
2023/12/14 01:08:44;;;;;;;58.30;30.73;;;6.10;99.90;;;;;;8274735;28;20191;-68
2023/12/14 01:12:44;;;;;;;55.27;27.57;;;6.10;99.90;;;;;;8273984;28;20225;-68
2023/12/14 01:16:45;;;;;;;42.57;23.93;;;6.00;99.90;;;;;;8270273;28;20188;-68
2023/12/14 01:20:46;;;;;;;61.53;28.87;;;6.10;99.90;;;;;;8275059;28;20219;-69
2023/12/14 01:24:47;;;;;;;54.93;27.87;;;6.00;99.90;;;;;;8274990;28;20210;-68
2023/12/14 01:28:48;;;;;;;52.00;25.83;;;6.00;99.90;;;;;;8270893;28;20435;-68
2023/12/14 01:32:48;;;;;;;51.87;26.00;;;6.00;99.90;;;;;;8264941;28;20269;-68
2023/12/14 01:36:49;;;;;;;57.73;27.83;;;6.00;99.90;;;;;;8272740;28;20198;-68
2023/12/14 01:40:50;;;;;;;57.97;28.60;;;6.00;99.90;;;;;;8269962;28;20237;-69
2023/12/14 01:44:50;;;;;;;58.90;29.63;;;6.00;99.90;;;;;;8270923;28;20237;-68
2023/12/14 01:48:52;;;;;;;57.47;27.63;;;6.10;99.90;;;;;;8266511;28;20201;-68
2023/12/14 01:52:53;;;;;;;62.57;30.40;;;6.10;99.90;;;;;;8280159;28;20288;-69
2023/12/14 01:56:54;;;;;;;58.20;27.57;;;6.00;99.90;;;;;;8270366;28;20210;-69
2023/12/14 02:00:55;;;;;;;57.90;28.87;;;6.00;99.90;;;;;;8271745;28;20274;-68
2023/12/14 02:04:56;;;;;;;61.90;31.17;;;6.00;99.90;;;;;;8269199;28;20607;-66
2023/12/14 02:08:56;;;;;;;66.40;33.37;;;6.00;99.90;;;;;;8270710;28;20614;-68
2023/12/14 02:12:57;;;;;;;70.33;30.27;;;6.00;99.90;;;;;;8266426;28;20305;-69
2023/12/14 02:16:58;;;;;;;85.53;29.33;;;5.90;99.90;;;;;;8272228;28;20190;-68
2023/12/14 02:20:58;;;;;;;82.30;29.27;;;5.90;99.90;;;;;;8265866;28;20188;-68
2023/12/14 02:24:59;;;;;;;82.20;29.57;;;5.80;99.90;;;;;;8277372;28;20262;-68
2023/12/14 02:29:00;;;;;;;57.80;25.10;;;5.80;99.90;;;;;;8275094;28;20202;-68
2023/12/14 02:33:01;;;;;;;95.50;40.83;;;5.80;99.90;;;;;;8272285;28;20226;-68
2023/12/14 02:37:01;;;;;;;76.53;32.23;;;5.80;99.90;;;;;;8272907;28;20194;-68
2023/12/14 02:41:03;;;;;;;66.47;26.70;;;5.90;99.90;;;;;;8273477;28;20226;-68
2023/12/14 02:45:04;;;;;;;65.73;27.50;;;5.90;99.90;;;;;;8276212;28;20205;-69
2023/12/14 02:49:04;;;;;;;56.03;24.77;;;5.90;99.90;;;;;;8271362;28;20226;-68
2023/12/14 02:53:08;;;;;;;60.60;25.20;;;5.90;99.90;;;;;;8272277;28;20215;-69
2023/12/14 02:57:09;;;;;;;68.47;25.23;;;5.90;99.90;;;;;;8275487;28;20273;-69
2023/12/14 03:01:10;;;;;;;52.50;22.73;;;5.90;99.90;;;;;;8274150;28;20183;-68
2023/12/14 03:05:11;;;;;;;58.63;25.07;;;5.90;99.90;;;;;;8278674;28;20183;-69
2023/12/14 03:09:11;;;;;;;48.27;22.73;;;5.90;99.90;;;;;;8273519;28;20187;-67
2023/12/14 03:13:12;;;;;;;64.23;26.27;;;5.90;99.90;;;;;;8274745;28;20436;-69
2023/12/14 03:17:13;;;;;;;70.47;26.53;;;5.80;99.90;;;;;;8269437;28;20187;-69
2023/12/14 03:21:13;;;;;;;60.07;26.37;;;5.70;99.90;;;;;;8270721;28;20507;-68
2023/12/14 03:25:14;;;;;;;63.20;26.30;;;5.50;99.90;;;;;;8273045;28;20233;-68
2023/12/14 03:29:15;;;;;;;59.10;26.93;;;5.40;99.90;;;;;;8273605;28;20187;-68
2023/12/14 03:33:16;;;;;;;64.37;26.73;;;5.30;99.90;;;;;;8272816;28;20223;-69
2023/12/14 03:37:17;;;;;;;64.10;27.87;;;5.30;99.90;;;;;;8278605;28;20208;-68
2023/12/14 03:41:20;;;;;;;65.57;28.10;;;5.30;99.90;;;;;;8270046;28;20209;-69
2023/12/14 03:45:21;;;;;;;63.70;26.93;;;5.30;99.90;;;;;;8274294;28;20196;-69
2023/12/14 03:49:22;;;;;;;68.43;28.00;;;5.20;99.90;;;;;;8270101;28;20225;-69
2023/12/14 03:53:22;;;;;;;59.23;28.03;;;5.20;99.90;;;;;;8275205;28;20242;-68
2023/12/14 03:57:23;;;;;;;58.43;29.03;;;5.20;99.90;;;;;;8261833;28;20202;-68
2023/12/14 04:01:24;;;;;;;56.40;27.77;;;5.10;99.90;;;;;;8267921;28;20188;-68
2023/12/14 04:05:25;;;;;;;55.57;29.17;;;5.10;99.90;;;;;;8271096;28;20196;-67
2023/12/14 04:09:25;;;;;;;56.13;27.73;;;5.20;99.90;;;;;;8273052;28;20191;-68
2023/12/14 04:13:27;;;;;;;53.27;25.83;;;5.20;99.90;;;;;;8272022;28;20219;-68
2023/12/14 04:17:28;;;;;;;55.77;28.30;;;5.20;99.90;;;;;;8270971;28;20186;-68
2023/12/14 04:21:28;;;;;;;45.03;24.47;;;5.20;99.90;;;;;;8269948;28;20190;-68
2023/12/14 04:25:29;;;;;;;53.50;27.77;;;5.20;99.90;;;;;;8270318;28;20193;-68
2023/12/14 04:29:30;;;;;;;53.40;27.60;;;5.10;99.90;;;;;;8270787;28;20188;-68
2023/12/14 04:33:31;;;;;;;49.53;25.50;;;5.10;99.90;;;;;;8267091;28;20215;-68
2023/12/14 04:37:32;;;;;;;56.23;28.37;;;5.10;99.90;;;;;;8268420;28;20226;-68
2023/12/14 04:41:33;;;;;;;60.23;30.27;;;5.00;99.90;;;;;;8270486;28;20220;-68
2023/12/14 04:45:34;;;;;;;61.73;31.73;;;5.00;99.90;;;;;;8268828;28;20235;-68
2023/12/14 04:49:34;;;;;;;73.27;35.23;;;5.00;99.90;;;;;;8268031;28;20188;-68
2023/12/14 04:53:35;;;;;;;73.97;35.97;;;5.00;99.90;;;;;;8268990;28;20310;-68
2023/12/14 04:57:36;;;;;;;75.27;36.37;;;5.00;99.90;;;;;;8271051;28;20188;-68
2023/12/14 05:01:37;;;;;;;85.03;40.73;;;5.00;99.90;;;;;;8285173;28;20199;-68
2023/12/14 05:05:38;;;;;;;85.73;42.40;;;5.00;99.90;;;;;;8269711;28;20201;-68
2023/12/14 05:09:38;;;;;;;88.97;46.70;;;4.90;99.90;;;;;;8267580;28;20220;-70
2023/12/14 05:13:40;;;;;;;92.67;48.70;;;4.90;99.90;;;;;;8270545;28;20219;-69
2023/12/14 05:17:41;;;;;;;80.13;40.37;;;4.90;99.90;;;;;;8267407;28;20191;-69
2023/12/14 05:21:41;;;;;;;75.13;38.20;;;4.90;99.90;;;;;;8272134;28;20202;-69
2023/12/14 05:25:42;;;;;;;80.67;39.53;;;4.90;99.90;;;;;;8269148;28;20221;-67
2023/12/14 05:29:43;;;;;;;81.23;40.87;;;4.80;99.90;;;;;;8265530;28;20366;-68
2023/12/14 05:33:44;;;;;;;84.10;39.90;;;4.80;99.90;;;;;;8269417;28;20217;-69
2023/12/14 05:37:45;;;;;;;82.67;42.07;;;4.70;99.90;;;;;;8271221;28;20190;-69
2023/12/14 05:41:45;;;;;;;80.53;40.33;;;4.70;99.90;;;;;;8271294;28;20267;-69
2023/12/14 05:45:46;;;;;;;78.57;40.33;;;4.60;99.90;;;;;;8272424;28;20207;-68
2023/12/14 05:49:47;;;;;;;90.60;41.77;;;4.60;99.90;;;;;;8272339;28;20195;-68
2023/12/14 05:53:47;;;;;;;95.70;37.40;;;4.60;99.90;;;;;;8271793;28;20226;-67
2023/12/14 05:57:49;;;;;;;72.30;33.47;;;4.50;99.90;;;;;;8278874;28;20221;-67
2023/12/14 06:01:49;;;;;;;130.93;49.07;;;4.50;99.90;;;;;;8275796;28;20253;-67
2023/12/14 06:05:50;;;;;;;85.00;36.30;;;4.50;99.90;;;;;;8278915;28;20190;-67
2023/12/14 06:09:51;;;;;;;109.17;41.47;;;4.40;99.90;;;;;;8276127;28;20202;-68
2023/12/14 06:13:52;;;;;;;121.77;45.17;;;4.40;99.90;;;;;;8279859;28;20309;-68
2023/12/14 06:17:52;;;;;;;72.47;34.30;;;4.40;99.90;;;;;;8279888;28;20183;-70
2023/12/14 06:21:53;;;;;;;73.43;33.23;;;4.30;99.90;;;;;;8280722;28;20195;-68
2023/12/14 06:25:54;;;;;;;94.83;41.50;;;4.30;99.90;;;;;;8274705;28;20309;-67
2023/12/14 06:29:54;;;;;;;93.20;45.73;;;4.30;99.90;;;;;;8277586;28;20203;-67
2023/12/14 06:33:55;;;;;;;106.67;46.37;;;4.30;99.90;;;;;;8274931;28;20217;-68
2023/12/14 06:37:56;;;;;;;167.70;62.20;;;4.30;99.90;;;;;;8281227;28;20190;-67
2023/12/14 06:41:57;;;;;;;177.37;66.30;;;4.30;99.90;;;;;;8276759;28;20217;-67
2023/12/14 06:45:57;;;;;;;183.60;65.67;;;4.30;99.90;;;;;;8283742;28;20656;-68
2023/12/14 06:49:58;;;;;;;125.87;47.13;;;4.30;99.90;;;;;;8297167;28;20202;-68
2023/12/14 06:53:59;;;;;;;64.13;28.53;;;4.30;99.90;;;;;;8276807;28;20211;-68
2023/12/14 06:58:01;;;;;;;75.93;31.20;;;4.30;99.90;;;;;;8278542;28;20214;-68
2023/12/14 07:02:02;;;;;;;97.80;45.40;;;4.30;99.90;;;;;;8279019;28;20253;-68
2023/12/14 07:10:59;;;;;;;76.97;37.37;;;4.30;99.90;;;;;;8302103;28;20163;-67
2023/12/14 07:15:00;;;;;;;83.07;36.43;;;4.30;99.90;;;;;;8269850;28;20214;-68
2023/12/14 07:19:01;;;;;;;88.43;39.33;;;4.30;99.90;;;;;;8270051;28;20188;-68
2023/12/14 07:23:02;;;;;;;86.90;36.30;;;4.30;99.90;;;;;;8261249;28;20202;-69
2023/12/14 07:27:03;;;;;;;106.53;47.30;;;4.30;99.90;;;;;;8270556;28;20195;-68
2023/12/14 07:31:04;;;;;;;97.53;42.37;;;4.30;99.90;;;;;;8282358;28;20198;-68
2023/12/14 07:35:06;;;;;;;111.30;49.30;;;4.30;99.90;;;;;;8264046;28;20265;-68
2023/12/14 07:39:08;;;;;;;85.23;37.77;;;4.30;99.90;;;;;;8266600;28;20188;-68
2023/12/14 07:43:09;;;;;;;80.63;36.00;;;4.30;99.90;;;;;;8269204;28;20215;-68
2023/12/14 07:47:10;;;;;;;102.47;49.90;;;4.30;99.90;;;;;;8264494;28;20209;-68
2023/12/14 07:51:14;;;;;;;116.10;59.97;;;4.30;99.90;;;;;;8267656;28;20257;-67
2023/12/14 07:55:15;;;;;;;87.97;43.03;;;4.30;99.90;;;;;;8270206;28;20215;-66
2023/12/14 07:59:15;;;;;;;62.97;28.30;;;4.20;99.90;;;;;;8268299;28;20187;-68
2023/12/14 08:03:16;;;;;;;60.00;27.03;;;4.20;99.90;;;;;;8264058;28;20184;-67
2023/12/14 08:07:17;;;;;;;70.47;35.03;;;4.20;99.90;;;;;;8269689;28;20198;-68
2023/12/14 08:11:17;;;;;;;82.50;38.90;;;4.20;99.90;;;;;;8271428;28;20193;-67
2023/12/14 08:15:18;;;;;;;86.07;44.30;;;4.30;99.90;;;;;;8272862;28;20265;-67
2023/12/14 08:19:19;;;;;;;64.30;32.87;;;4.30;99.90;;;;;;8270618;28;20187;-67
2023/12/14 08:23:20;;;;;;;66.00;27.47;;;4.30;99.90;;;;;;8269805;28;20190;-67
2023/12/14 08:27:20;;;;;;;63.67;29.33;;;4.30;99.90;;;;;;8274890;28;20263;-68
2023/12/14 08:31:21;;;;;;;57.17;29.10;;;4.30;99.90;;;;;;8266759;28;20286;-68
2023/12/14 08:35:22;;;;;;;53.77;25.97;;;4.30;99.90;;;;;;8271866;28;20203;-67
2023/12/14 08:39:22;;;;;;;57.40;27.40;;;4.40;99.90;;;;;;8265020;28;20216;-67
2023/12/14 08:43:23;;;;;;;47.37;23.57;;;4.40;99.90;;;;;;8268129;28;20210;-68
2023/12/14 08:47:24;;;;;;;46.50;25.17;;;4.40;99.90;;;;;;8267170;28;20211;-68
2023/12/14 08:51:26;;;;;;;59.67;31.43;;;4.30;99.90;;;;;;8271256;28;20362;-66
2023/12/14 08:55:28;;;;;;;51.10;25.37;;;4.30;99.90;;;;;;8268496;28;20184;-67
2023/12/14 08:59:29;;;;;;;38.93;20.57;;;4.40;99.90;;;;;;8267467;28;20189;-67
2023/12/14 09:03:29;;;;;;;40.70;21.53;;;4.50;99.90;;;;;;8267881;28;20188;-67
2023/12/14 09:07:31;;;;;;;34.23;19.63;;;4.50;99.90;;;;;;8270721;28;20184;-66
2023/12/14 09:11:31;;;;;;;38.03;20.67;;;4.50;99.90;;;;;;8268031;28;20413;-68
2023/12/14 09:15:33;;;;;;;34.50;20.13;;;4.50;99.90;;;;;;8272450;28;20309;-67
2023/12/14 09:19:34;;;;;;;28.40;18.07;;;4.60;99.90;;;;;;8267406;28;20211;-66
2023/12/14 09:23:35;;;;;;;32.20;19.43;;;4.60;99.90;;;;;;8268681;28;20187;-69
2023/12/14 09:27:35;;;;;;;23.83;15.13;;;4.70;99.90;;;;;;8269466;28;20182;-69
2023/12/14 09:31:36;;;;;;;59.40;37.37;;;4.70;99.90;;;;;;8267860;28;20274;-68
2023/12/14 09:35:37;;;;;;;50.90;32.87;;;4.70;99.90;;;;;;8269243;28;20211;-67
2023/12/14 09:39:38;;;;;;;34.93;25.23;;;4.70;99.90;;;;;;8267260;28;20218;-68
2023/12/14 09:43:38;;;;;;;35.97;24.47;;;4.70;99.90;;;;;;8268248;28;20208;-68
2023/12/14 09:47:41;;;;;;;21.33;12.67;;;4.70;99.90;;;;;;8267286;28;20199;-68
2023/12/14 09:51:42;;;;;;;27.23;17.57;;;4.80;99.90;;;;;;8267435;28;20188;-68
2023/12/14 09:55:43;;;;;;;26.50;16.07;;;4.90;99.90;;;;;;8267610;28;20545;-69
2023/12/14 09:59:51;;;;;;;22.87;13.20;;;5.00;99.90;;;;;;8286168;28;20199;-68
2023/12/14 10:04:12;;;;;;;22.23;15.00;;;5.00;99.90;;;;;;8271844;28;20182;-67
2023/12/14 10:08:13;;;;;;;17.27;10.07;;;5.00;99.90;;;;;;8272142;28;20188;-67
2023/12/14 10:12:14;;;;;;;19.93;12.67;;;4.90;99.90;;;;;;8269309;28;20210;-67
2023/12/14 10:16:28;;;;;;;16.20;10.33;;;4.80;99.90;;;;;;8269415;28;20202;-68
2023/12/14 10:20:29;;;;;;;17.37;10.77;;;4.70;99.90;;;;;;8273663;28;20179;-66
2023/12/14 10:24:33;;;;;;;21.63;15.00;;;4.70;99.90;;;;;;8270917;28;20187;-66
2023/12/14 10:28:33;;;;;;;30.53;18.37;;;4.60;99.90;;;;;;8272088;28;21572;-67
2023/12/14 10:32:34;;;;;;;36.77;19.80;;;4.50;99.90;;;;;;8274138;28;20270;-66
2023/12/14 10:36:36;;;;;;;27.63;17.27;;;4.50;99.90;;;;;;8273117;28;20247;-66
2023/12/14 10:40:40;;;;;;;23.00;14.67;;;4.50;99.90;;;;;;8268469;28;20318;-66
2023/12/14 10:44:41;;;;;;;29.80;18.27;;;4.60;99.90;;;;;;8276238;28;20198;-66
2023/12/14 10:48:45;;;;;;;22.57;16.30;;;4.60;99.90;;;;;;8276662;28;20229;-67
2023/12/14 10:52:46;;;;;;;16.50;11.57;;;4.60;99.90;;;;;;8276895;28;20212;-67
2023/12/14 10:56:47;;;;;;;20.00;12.87;;;4.60;99.90;;;;;;8281560;28;20180;-67
2023/12/14 11:01:03;;;;;;;15.63;10.87;;;4.50;99.90;;;;;;8272311;28;20206;-67
2023/12/14 11:05:09;;;;;;;20.53;12.03;;;4.50;99.90;;;;;;8268874;28;20263;-65
2023/12/14 11:09:13;;;;;;;21.10;12.77;;;4.40;99.90;;;;;;8272908;28;20191;-67
2023/12/14 11:13:17;;;;;;;20.37;14.37;;;4.50;99.90;;;;;;8276197;28;20346;-66
2023/12/14 11:17:18;;;;;;;19.07;11.87;;;4.50;99.90;;;;;;8276296;28;20188;-66
2023/12/14 11:21:20;;;;;;;19.20;12.60;;;4.60;99.90;;;;;;8276364;28;20369;-68
2023/12/14 11:25:24;;;;;;;15.73;11.07;;;4.60;99.90;;;;;;8275930;28;20190;-68
2023/12/14 11:29:25;;;;;;;20.07;11.70;;;4.60;99.90;;;;;;8277572;28;20239;-67
2023/12/14 11:33:28;;;;;;;15.73;11.10;;;4.50;99.90;;;;;;8273207;28;22242;-67
2023/12/14 11:37:29;;;;;;;19.20;13.50;;;4.40;99.90;;;;;;8276291;28;20218;-67
2023/12/14 11:41:31;;;;;;;15.60;11.23;;;4.40;99.90;;;;;;8271870;28;20199;-68
2023/12/14 11:45:32;;;;;;;16.70;12.23;;;4.40;99.90;;;;;;8270666;28;20296;-68
2023/12/14 11:49:32;;;;;;;22.33;16.20;;;4.40;99.90;;;;;;8249740;28;20265;-66
2023/12/14 11:53:38;;;;;;;21.20;15.50;;;4.40;99.90;;;;;;8267934;28;20211;-66
2023/12/14 11:57:39;;;;;;;18.27;13.97;;;4.50;99.90;;;;;;8266185;28;20203;-65
2023/12/14 12:01:53;;;;;;;19.43;14.10;;;4.40;99.90;;;;;;8270884;28;20195;-67
2023/12/14 12:05:53;;;;;;;24.97;17.63;;;4.40;99.90;;;;;;8272101;28;20183;-67
2023/12/14 12:09:54;;;;;;;14.77;10.03;;;4.40;99.90;;;;;;8272779;28;20184;-66
2023/12/14 12:13:56;;;;;;;16.10;11.20;;;4.30;99.90;;;;;;8271297;28;20215;-67
2023/12/14 12:17:58;;;;;;;12.33;9.03;;;4.20;99.90;;;;;;8271254;28;20187;-67
2023/12/14 12:22:01;;;;;;;8.60;7.07;;;4.20;99.90;;;;;;8269526;28;20188;-66
2023/12/14 12:26:02;;;;;;;10.30;7.07;;;4.10;99.90;;;;;;8268399;28;20246;-67
2023/12/14 12:30:06;;;;;;;9.00;7.53;;;4.00;99.90;;;;;;8272753;28;20190;-68
2023/12/14 12:34:07;;;;;;;8.20;6.83;;;3.90;99.90;;;;;;8271880;28;20211;-67
2023/12/14 12:38:08;;;;;;;10.77;7.30;;;3.80;99.90;;;;;;8287807;28;20215;-67
2023/12/14 12:42:09;;;;;;;9.40;7.03;;;3.70;99.90;;;;;;8271170;28;20252;-67
2023/12/14 12:46:09;;;;;;;9.80;6.57;;;3.70;99.90;;;;;;8272653;28;20202;-67
2023/12/14 12:50:11;;;;;;;8.27;6.50;;;3.70;99.90;;;;;;8272887;28;20183;-68
2023/12/14 12:54:12;;;;;;;10.60;6.87;;;3.60;99.90;;;;;;8286864;28;20297;-67
2023/12/14 12:58:14;;;;;;;10.47;7.23;;;3.50;99.90;;;;;;8275876;28;20183;-69
2023/12/14 13:02:15;;;;;;;10.87;7.70;;;3.50;99.90;;;;;;8264656;28;20196;-67
2023/12/14 13:06:16;;;;;;;11.50;8.27;;;3.50;99.90;;;;;;8265147;28;20182;-67
2023/12/14 13:10:18;;;;;;;10.50;8.10;;;3.50;99.90;;;;;;8247699;28;20230;-66
2023/12/14 13:14:19;;;;;;;11.87;7.37;;;3.50;99.90;;;;;;8253778;28;20219;-65
2023/12/14 13:18:20;;;;;;;11.07;6.90;;;3.50;99.90;;;;;;8273959;28;20455;-66
2023/12/14 13:22:20;;;;;;;10.33;7.70;;;3.50;99.90;;;;;;8270134;28;20202;-65
2023/12/14 13:26:21;;;;;;;10.03;7.43;;;3.50;99.90;;;;;;8269305;28;20191;-65
2023/12/14 13:30:22;;;;;;;8.97;6.80;;;3.50;99.90;;;;;;8269351;28;20293;-65
2023/12/14 13:34:23;;;;;;;8.63;6.70;;;3.50;99.90;;;;;;8267940;28;20219;-66
2023/12/14 13:38:24;;;;;;;9.37;6.93;;;3.40;99.90;;;;;;8265655;28;20194;-65
2023/12/14 13:42:25;;;;;;;10.13;7.03;;;3.40;99.90;;;;;;8265536;28;20214;-65
2023/12/14 13:46:26;;;;;;;8.03;6.20;;;3.50;99.90;;;;;;8268563;28;20318;-66
2023/12/14 13:50:27;;;;;;;9.33;7.10;;;3.30;99.90;;;;;;8265411;28;20202;-65
2023/12/14 13:54:28;;;;;;;8.77;6.17;;;3.30;99.90;;;;;;8271478;28;20305;-65
2023/12/14 13:58:29;;;;;;;9.00;6.80;;;3.20;99.90;;;;;;8264062;28;20218;-67
2023/12/14 14:02:29;;;;;;;9.83;6.60;;;3.10;99.90;;;;;;8265893;28;20234;-65
2023/12/14 14:06:30;;;;;;;11.20;7.47;;;3.00;99.90;;;;;;8263588;28;20194;-66
2023/12/14 14:10:31;;;;;;;9.20;7.27;;;3.00;99.90;;;;;;8263394;28;20586;-66
2023/12/14 14:14:32;;;;;;;8.90;6.53;;;3.00;99.90;;;;;;8258464;28;20231;-66
2023/12/14 14:18:33;;;;;;;10.20;7.70;;;3.00;99.90;;;;;;8270576;28;20186;-66
2023/12/14 14:22:33;;;;;;;9.70;6.50;;;3.00;99.90;;;;;;8270311;28;20183;-66
2023/12/14 14:26:34;;;;;;;11.23;6.67;;;3.00;99.90;;;;;;8289546;28;20206;-66
2023/12/14 14:30:35;;;;;;;9.73;7.53;;;3.00;99.90;;;;;;8264773;28;20493;-66
2023/12/14 14:34:36;;;;;;;8.87;6.90;;;2.90;99.90;;;;;;8271175;28;20207;-66
2023/12/14 14:38:37;;;;;;;13.40;9.93;;;2.90;99.90;;;;;;8273093;28;20198;-66
2023/12/14 14:42:38;;;;;;;13.70;9.40;;;2.90;99.90;;;;;;8275908;28;20231;-65
2023/12/14 14:46:39;;;;;;;11.63;8.90;;;2.80;99.90;;;;;;8273697;28;20238;-66
2023/12/14 14:50:39;;;;;;;11.23;8.80;;;2.70;99.90;;;;;;8271071;28;20218;-65
2023/12/14 14:54:40;;;;;;;13.53;9.47;;;2.70;99.90;;;;;;8274347;28;20211;-66
2023/12/14 14:58:41;;;;;;;11.87;8.70;;;2.70;99.90;;;;;;8272386;28;20187;-66
2023/12/14 15:02:41;;;;;;;17.67;11.90;;;2.70;99.90;;;;;;8274581;28;20267;-65
2023/12/14 15:06:42;;;;;;;12.83;9.30;;;2.70;99.90;;;;;;8272308;28;20183;-66
2023/12/14 15:10:43;;;;;;;13.97;9.90;;;2.60;99.90;;;;;;8275341;28;20187;-65
2023/12/14 15:14:44;;;;;;;14.77;9.97;;;2.60;99.90;;;;;;8267372;28;20324;-65
2023/12/14 15:18:45;;;;;;;16.73;11.30;;;2.60;99.90;;;;;;8289550;28;20266;-65
2023/12/14 15:22:46;;;;;;;15.40;10.00;;;2.70;99.90;;;;;;8270089;28;20557;-66
2023/12/14 15:26:48;;;;;;;13.50;10.23;;;2.70;99.90;;;;;;8270343;28;20187;-65
2023/12/14 15:30:49;;;;;;;11.97;10.10;;;2.70;99.90;;;;;;8266059;28;20254;-66
2023/12/14 15:34:50;;;;;;;14.23;10.43;;;2.70;99.90;;;;;;8273203;28;20222;-67
2023/12/14 15:38:52;;;;;;;15.77;10.90;;;2.70;99.90;;;;;;8274766;28;20183;-66
2023/12/14 15:42:55;;;;;;;14.50;10.10;;;2.70;99.90;;;;;;8275293;28;20319;-66
2023/12/14 15:46:56;;;;;;;17.07;12.17;;;2.60;99.90;;;;;;8270591;28;20206;-66
2023/12/14 15:50:57;;;;;;;16.13;11.37;;;2.50;99.90;;;;;;8271341;28;20191;-64
2023/12/14 15:55:00;;;;;;;18.00;11.27;;;2.50;99.90;;;;;;8269041;28;20219;-68
2023/12/14 15:59:00;;;;;;;15.83;11.67;;;2.50;99.90;;;;;;8272420;28;20191;-67
2023/12/14 16:03:01;;;;;;;14.73;10.37;;;2.40;99.90;;;;;;8269315;28;20195;-67
2023/12/14 16:07:03;;;;;;;21.27;14.07;;;2.30;99.90;;;;;;8271709;28;20187;-66
2023/12/14 16:11:04;;;;;;;18.27;12.20;;;2.30;99.90;;;;;;8266456;28;20180;-65
2023/12/14 16:15:05;;;;;;;18.70;12.13;;;2.30;99.90;;;;;;8270808;28;20246;-65
2023/12/14 16:19:06;;;;;;;17.83;11.57;;;2.20;99.90;;;;;;8274179;28;20188;-66
2023/12/14 16:23:07;;;;;;;19.03;12.10;;;2.20;99.90;;;;;;8271377;28;20191;-67
2023/12/14 16:27:08;;;;;;;19.20;11.87;;;2.20;99.90;;;;;;8274404;28;20503;-65
2023/12/14 16:31:09;;;;;;;21.57;14.00;;;2.20;99.90;;;;;;8273315;28;20197;-66
2023/12/14 16:35:10;;;;;;;21.00;13.27;;;2.20;99.90;;;;;;8269990;28;20226;-66
2023/12/14 16:39:11;;;;;;;21.20;14.37;;;2.10;99.90;;;;;;8276955;28;20183;-66
2023/12/14 16:43:15;;;;;;;25.37;15.60;;;2.20;99.90;;;;;;8272936;28;20241;-66
2023/12/14 16:47:16;;;;;;;28.90;17.03;;;2.20;99.90;;;;;;8270888;28;20199;-67
2023/12/14 16:51:20;;;;;;;32.87;18.60;;;2.20;99.90;;;;;;8271717;28;20195;-66
2023/12/14 16:55:21;;;;;;;30.53;17.17;;;2.20;99.90;;;;;;8269914;28;20246;-67
2023/12/14 16:59:22;;;;;;;36.97;20.03;;;2.20;99.90;;;;;;8278073;28;20179;-65
2023/12/14 17:03:23;;;;;;;36.20;20.10;;;2.20;99.90;;;;;;8271744;28;20187;-66
2023/12/14 17:07:23;;;;;;;35.73;20.00;;;2.20;99.90;;;;;;8260357;28;20223;-66
2023/12/14 17:11:24;;;;;;;41.07;22.67;;;2.20;99.90;;;;;;8270395;28;20203;-66
2023/12/14 17:15:25;;;;;;;52.73;22.93;;;2.20;99.90;;;;;;8264102;28;20222;-67
2023/12/14 17:19:26;;;;;;;49.23;22.57;;;2.20;99.90;;;;;;8267810;28;20519;-66
2023/12/14 17:23:26;;;;;;;44.33;22.47;;;2.20;99.90;;;;;;8270780;28;20278;-66
2023/12/14 17:27:28;;;;;;;56.00;24.23;;;2.20;99.90;;;;;;8276490;28;20185;-67
2023/12/14 17:31:29;;;;;;;66.43;26.60;;;2.20;99.90;;;;;;8260515;28;20202;-66
2023/12/14 17:35:30;;;;;;;70.53;30.80;;;2.20;99.90;;;;;;8271187;28;20305;-65
2023/12/14 17:39:31;;;;;;;49.73;25.57;;;2.20;99.90;;;;;;8249724;28;20192;-66
2023/12/14 17:43:34;;;;;;;61.80;25.97;;;2.20;99.90;;;;;;8268923;28;20337;-68
2023/12/14 17:47:35;;;;;;;53.33;24.60;;;2.20;99.90;;;;;;8269136;28;20210;-67
2023/12/14 17:51:40;;;;;;;58.43;26.87;;;2.20;99.90;;;;;;8270241;28;20249;-67
2023/12/14 17:55:41;;;;;;;81.93;32.83;;;2.30;99.90;;;;;;8286972;28;20242;-67
2023/12/14 17:59:42;;;;;;;68.60;33.57;;;2.30;99.90;;;;;;8274677;28;20195;-68
2023/12/14 18:03:44;;;;;;;59.33;29.50;;;2.40;99.90;;;;;;8271236;28;20266;-68
2023/12/14 18:07:45;;;;;;;56.10;27.60;;;2.40;99.90;;;;;;8265019;28;20195;-67
2023/12/14 18:11:46;;;;;;;53.07;26.77;;;2.30;99.90;;;;;;8268671;28;20183;-67
2023/12/14 18:15:46;;;;;;;56.47;29.13;;;2.40;99.90;;;;;;8268888;28;20202;-67
2023/12/14 18:19:47;;;;;;;54.87;29.23;;;2.40;99.90;;;;;;8270285;28;20269;-67
2023/12/14 18:23:48;;;;;;;51.90;26.70;;;2.40;99.90;;;;;;8275628;28;20188;-68
2023/12/14 18:27:55;;;;;;;60.67;30.93;;;2.40;99.90;;;;;;8269150;28;20278;-67
2023/12/14 18:31:55;;;;;;;52.07;28.20;;;2.40;99.90;;;;;;8270009;28;20218;-67
2023/12/14 18:35:56;;;;;;;54.43;29.00;;;2.40;99.90;;;;;;8265434;28;20186;-65
2023/12/14 18:39:57;;;;;;;51.83;27.37;;;2.40;99.90;;;;;;8269970;28;20298;-65
2023/12/14 18:43:58;;;;;;;60.63;30.93;;;2.40;99.90;;;;;;8262972;28;20214;-67
2023/12/14 18:47:59;;;;;;;53.93;27.13;;;2.30;99.90;;;;;;8267510;28;20195;-67
2023/12/14 18:52:00;;;;;;;47.03;26.50;;;2.40;99.90;;;;;;8264034;28;20183;-67
2023/12/14 18:56:02;;;;;;;58.57;29.60;;;2.40;99.90;;;;;;8267073;28;20278;-66
2023/12/14 19:00:03;;;;;;;48.20;27.90;;;2.40;99.90;;;;;;8263706;28;20265;-67
2023/12/14 19:04:04;;;;;;;51.80;29.10;;;2.60;99.90;;;;;;8284393;28;20194;-66
2023/12/14 19:08:05;;;;;;;53.13;27.80;;;2.70;99.90;;;;;;8271193;28;20213;-67
2023/12/14 19:12:06;;;;;;;55.90;31.10;;;2.70;99.90;;;;;;8279125;28;20218;-67
2023/12/14 19:16:07;;;;;;;44.27;26.70;;;2.70;99.90;;;;;;8272575;28;20263;-66
2023/12/14 19:20:13;;;;;;;46.73;28.17;;;2.70;99.90;;;;;;8274747;28;20188;-67
2023/12/14 19:24:14;;;;;;;63.83;35.23;;;2.60;99.90;;;;;;8274598;28;20191;-67
2023/12/14 19:28:14;;;;;;;72.77;35.27;;;2.60;99.90;;;;;;8274752;28;20222;-67
2023/12/14 19:32:16;;;;;;;60.63;34.77;;;2.50;99.90;;;;;;8273200;28;20218;-67
2023/12/14 19:36:17;;;;;;;41.33;25.90;;;2.50;99.90;;;;;;8272505;28;20194;-66
2023/12/14 19:40:18;;;;;;;38.80;24.87;;;2.40;99.90;;;;;;8271336;28;20187;-67
2023/12/14 19:44:19;;;;;;;35.33;22.73;;;2.40;99.90;;;;;;8272404;28;20229;-66
2023/12/14 19:48:20;;;;;;;35.47;22.23;;;2.30;99.90;;;;;;8286470;28;20199;-67
2023/12/14 19:52:21;;;;;;;35.90;22.67;;;2.20;99.90;;;;;;8275920;28;20244;-66
2023/12/14 19:56:21;;;;;;;32.57;21.13;;;2.10;99.90;;;;;;8271939;28;20217;-66
2023/12/14 20:00:22;;;;;;;34.17;22.40;;;2.10;99.90;;;;;;8272184;28;20221;-66
2023/12/14 20:04:23;;;;;;;36.33;21.87;;;2.00;99.90;;;;;;8270216;28;20183;-66
2023/12/14 20:08:24;;;;;;;32.23;21.13;;;2.00;99.90;;;;;;8268783;28;20203;-66
2023/12/14 20:12:25;;;;;;;35.77;21.63;;;2.00;99.90;;;;;;8272429;28;20214;-66
2023/12/14 20:16:25;;;;;;;31.23;19.27;;;1.90;99.90;;;;;;8276226;28;20187;-66
2023/12/14 20:20:26;;;;;;;27.40;17.43;;;1.90;99.90;;;;;;8268226;28;20192;-66
2023/12/14 20:24:27;;;;;;;28.23;18.70;;;1.90;99.90;;;;;;8271904;28;20202;-67
2023/12/14 20:28:28;;;;;;;29.53;18.33;;;1.90;99.90;;;;;;8271547;28;20190;-66
2023/12/14 20:32:29;;;;;;;29.43;18.97;;;1.90;99.90;;;;;;8266359;28;20214;-66
2023/12/14 20:36:33;;;;;;;29.27;18.37;;;1.90;99.90;;;;;;8266112;28;20191;-69
2023/12/14 20:40:34;;;;;;;30.63;19.17;;;1.80;99.90;;;;;;8269292;28;20691;-66
2023/12/14 20:44:35;;;;;;;24.87;17.67;;;1.80;99.90;;;;;;8267351;28;20214;-67